Time;durP1;ratioP1;P1;durP2;ratioP2;P2;SDS_P1;SDS_P2;PMS_P1;PMS_P2;Temp;Humidity;BMP_temperature;BMP_pressure;BME280_temperature;BME280_humidity;BME280_pressure;Samples;Min_cycle;Max_cycle;Signal;HPM_P1;HPM_P2
2021/04/16 00:01:52;;;;;;;0.98;0.60;;;;;9.80;102870.00;;;;5087450;28;20210;-77
2021/04/16 00:04:19;;;;;;;1.75;0.60;;;;;9.70;102865.00;;;;5087815;28;20202;-78
2021/04/16 00:06:46;;;;;;;1.92;0.93;;;;;9.70;102868.00;;;;5089189;28;20209;-77
2021/04/16 00:09:13;;;;;;;1.25;0.70;;;;;9.70;102861.00;;;;5088333;28;20218;-77
2021/04/16 00:11:40;;;;;;;1.30;0.77;;;;;9.70;102860.00;;;;5086860;28;20198;-77
2021/04/16 00:14:07;;;;;;;1.30;0.77;;;;;9.60;102857.00;;;;5087543;28;20198;-78
2021/04/16 00:16:34;;;;;;;1.88;0.95;;;;;9.60;102855.00;;;;5088056;28;20293;-78
2021/04/16 00:19:01;;;;;;;1.00;0.52;;;;;9.60;102855.00;;;;5084819;28;20210;-77
2021/04/16 00:21:29;;;;;;;1.50;0.73;;;;;9.60;102848.00;;;;5074723;28;20658;-78
2021/04/16 00:23:55;;;;;;;0.93;0.50;;;;;9.50;102850.00;;;;5080710;28;20668;-78
2021/04/16 00:26:23;;;;;;;1.25;0.70;;;;;9.50;102848.00;;;;5088508;28;20193;-78
2021/04/16 00:28:50;;;;;;;1.15;0.73;;;;;9.50;102847.00;;;;5086531;28;20302;-77
2021/04/16 00:31:20;;;;;;;1.20;0.60;;;;;9.50;102842.00;;;;5078792;28;20229;-77
2021/04/16 00:33:47;;;;;;;1.60;0.77;;;;;9.50;102841.00;;;;5085365;28;20201;-78
2021/04/16 00:36:15;;;;;;;1.25;0.60;;;;;9.40;102839.00;;;;5087752;28;20198;-78
2021/04/16 00:38:42;;;;;;;1.77;0.88;;;;;9.40;102831.00;;;;5088513;28;20197;-77
2021/04/16 00:41:12;;;;;;;1.50;0.60;;;;;9.40;102832.00;;;;5088554;28;20198;-77
2021/04/16 00:43:39;;;;;;;0.85;0.65;;;;;9.30;102832.00;;;;5087474;28;20202;-77
2021/04/16 00:46:20;;;;;;;1.10;0.70;;;;;9.30;102822.00;;;;5085036;28;20202;-77
2021/04/16 00:48:49;;;;;;;1.42;0.70;;;;;9.30;102828.00;;;;5087753;28;20218;-78
2021/04/16 00:51:18;;;;;;;1.35;0.82;;;;;9.30;102822.00;;;;5087946;28;20219;-78
2021/04/16 00:53:46;;;;;;;1.48;0.80;;;;;9.30;102819.00;;;;5087388;28;20271;-78
2021/04/16 00:56:13;;;;;;;0.90;0.50;;;;;9.30;102828.00;;;;5087325;28;20214;-77
2021/04/16 00:58:41;;;;;;;0.98;0.77;;;;;9.20;102820.00;;;;5071496;28;21371;-78
2021/04/16 01:01:09;;;;;;;1.17;0.70;;;;;9.20;102824.00;;;;5067547;28;20199;-77
2021/04/16 01:03:35;;;;;;;1.25;0.90;;;;;9.20;102815.00;;;;5074580;28;20190;-77
2021/04/16 01:06:06;;;;;;;1.58;0.73;;;;;9.20;102820.00;;;;5087695;28;20251;-78
2021/04/16 01:08:35;;;;;;;0.75;0.47;;;;;9.10;102815.00;;;;5080899;28;20226;-78
2021/04/16 01:11:02;;;;;;;1.30;0.52;;;;;9.10;102814.00;;;;5085853;28;20202;-77
2021/04/16 01:13:29;;;;;;;1.30;0.70;;;;;9.10;102811.00;;;;5081746;28;20245;-78
2021/04/16 01:16:00;;;;;;;1.40;0.63;;;;;9.10;102813.00;;;;5086075;28;20656;-78
2021/04/16 01:18:31;;;;;;;1.70;0.98;;;;;9.10;102812.00;;;;5079478;28;20193;-77
2021/04/16 01:21:01;;;;;;;1.05;0.70;;;;;9.10;102820.00;;;;5076250;28;20198;-77
2021/04/16 01:23:40;;;;;;;1.80;0.75;;;;;9.00;102809.00;;;;5084920;28;20201;-78
2021/04/16 01:26:11;;;;;;;3.17;0.70;;;;;9.00;102814.00;;;;5081543;28;20193;-78
2021/04/16 01:28:38;;;;;;;1.30;0.90;;;;;9.00;102811.00;;;;5081727;28;20268;-77
2021/04/16 01:31:08;;;;;;;3.65;1.02;;;;;9.00;102815.00;;;;5090684;28;20701;-77
2021/04/16 01:33:36;;;;;;;1.42;0.90;;;;;9.00;102812.00;;;;5089498;28;20195;-78
2021/04/16 01:36:05;;;;;;;1.23;0.88;;;;;9.00;102812.00;;;;5090679;28;20191;-77
2021/04/16 01:38:33;;;;;;;1.40;0.80;;;;;9.00;102814.00;;;;5091103;28;20194;-77
2021/04/16 01:41:00;;;;;;;1.10;0.60;;;;;8.90;102817.00;;;;5077281;28;20211;-77
2021/04/16 01:43:31;;;;;;;2.15;0.90;;;;;8.90;102818.00;;;;5088178;28;20190;-77
2021/04/16 01:46:05;;;;;;;5.47;0.70;;;;;8.90;102811.00;;;;5089711;28;20195;-77
2021/04/16 01:48:37;;;;;;;2.13;0.85;;;;;8.90;102813.00;;;;5091554;28;20300;-77
2021/04/16 01:51:04;;;;;;;2.60;0.80;;;;;8.90;102813.00;;;;5089765;28;20304;-77
2021/04/16 01:53:31;;;;;;;1.33;0.80;;;;;8.90;102811.00;;;;5090447;28;20194;-77
2021/04/16 01:55:58;;;;;;;1.50;0.90;;;;;8.90;102815.00;;;;5090052;28;20202;-77
2021/04/16 01:58:26;;;;;;;2.35;1.17;;;;;8.90;102813.00;;;;5090499;28;20193;-77
2021/04/16 02:00:53;;;;;;;2.03;1.02;;;;;8.90;102808.00;;;;5087998;28;20198;-77
2021/04/16 02:03:20;;;;;;;1.70;0.93;;;;;8.90;102811.00;;;;5087742;28;20251;-77
2021/04/16 02:05:47;;;;;;;1.80;1.10;;;;;8.90;102808.00;;;;5084991;28;20195;-77
2021/04/16 02:08:14;;;;;;;1.42;0.77;;;;;8.90;102806.00;;;;5075863;28;20221;-77
2021/04/16 02:10:43;;;;;;;1.88;1.20;;;;;8.80;102811.00;;;;5084876;28;20201;-78
2021/04/16 02:13:09;;;;;;;2.67;0.90;;;;;8.80;102803.00;;;;5074720;28;20297;-78
2021/04/16 02:15:37;;;;;;;1.63;1.02;;;;;8.80;102813.00;;;;5088429;28;20220;-77
2021/04/16 02:18:05;;;;;;;2.97;1.20;;;;;8.80;102806.00;;;;5091347;28;20559;-78
2021/04/16 02:20:32;;;;;;;1.92;1.00;;;;;8.80;102807.00;;;;5090265;28;20199;-77
2021/04/16 02:22:59;;;;;;;2.45;1.30;;;;;8.80;102808.00;;;;5089875;28;20205;-77
2021/04/16 02:25:26;;;;;;;3.10;1.13;;;;;8.80;102804.00;;;;5090781;28;20198;-78
2021/04/16 02:27:53;;;;;;;2.47;1.30;;;;;8.80;102803.00;;;;5089838;28;20198;-77
2021/04/16 02:30:24;;;;;;;1.92;1.00;;;;;8.80;102814.00;;;;5089223;28;20281;-77
2021/04/16 02:32:51;;;;;;;1.65;1.15;;;;;8.80;102803.00;;;;5090969;28;20206;-78
2021/04/16 02:35:19;;;;;;;2.20;1.02;;;;;8.80;102796.00;;;;5090861;28;20198;-77
2021/04/16 02:37:46;;;;;;;1.88;1.00;;;;;8.80;102796.00;;;;5089643;28;20198;-78
2021/04/16 02:40:15;;;;;;;1.63;0.90;;;;;8.80;102789.00;;;;5089076;28;20198;-77
2021/04/16 02:42:42;;;;;;;2.65;0.80;;;;;8.80;102792.00;;;;5089542;28;20905;-77
2021/04/16 02:45:12;;;;;;;1.60;0.95;;;;;8.80;102796.00;;;;5078559;28;20203;-77
2021/04/16 02:47:39;;;;;;;2.03;0.98;;;;;8.80;102790.00;;;;5076198;28;20228;-77
2021/04/16 02:50:11;;;;;;;2.58;1.33;;;;;8.80;102790.00;;;;5089632;28;20234;-77
2021/04/16 02:52:38;;;;;;;2.78;0.77;;;;;8.80;102794.00;;;;5089434;28;20194;-77
2021/04/16 02:55:05;;;;;;;3.08;1.10;;;;;8.80;102793.00;;;;5082104;28;20197;-78
2021/04/16 02:57:32;;;;;;;4.70;1.10;;;;;8.80;102781.00;;;;5089464;28;20217;-77
2021/04/16 02:59:59;;;;;;;2.67;1.83;;;;;8.80;102790.00;;;;5075746;28;20253;-77
2021/04/16 03:02:26;;;;;;;1.23;0.93;;;;;8.80;102780.00;;;;5070085;28;20198;-78
2021/04/16 03:04:52;;;;;;;3.60;1.10;;;;;8.80;102783.00;;;;5088935;28;20691;-77
2021/04/16 03:07:20;;;;;;;1.88;1.15;;;;;8.80;102787.00;;;;5089572;28;20194;-77
2021/04/16 03:09:47;;;;;;;1.58;0.77;;;;;8.80;102787.00;;;;5080802;28;20785;-78
2021/04/16 03:12:14;;;;;;;2.05;1.38;;;;;8.80;102786.00;;;;5080960;28;20206;-77
2021/04/16 03:14:41;;;;;;;2.65;1.48;;;;;8.80;102785.00;;;;5073463;28;20198;-77
2021/04/16 03:17:08;;;;;;;3.00;1.13;;;;;8.80;102778.00;;;;5073817;28;20539;-77
2021/04/16 03:19:34;;;;;;;1.33;0.90;;;;;8.80;102783.00;;;;5088870;28;20583;-77
2021/04/16 03:22:01;;;;;;;2.80;1.13;;;;;8.80;102783.00;;;;5089107;28;20574;-77
2021/04/16 03:24:29;;;;;;;2.08;0.82;;;;;8.80;102784.00;;;;5083080;28;20197;-77
2021/04/16 03:26:55;;;;;;;1.65;1.00;;;;;8.80;102777.00;;;;5089286;28;20198;-77
2021/04/16 03:29:22;;;;;;;1.83;1.27;;;;;8.80;102772.00;;;;5078547;28;20215;-77
2021/04/16 03:31:49;;;;;;;0.93;0.80;;;;;8.80;102778.00;;;;5078922;28;20576;-77
2021/04/16 03:34:16;;;;;;;2.35;1.20;;;;;8.80;102782.00;;;;5080505;28;20198;-77
2021/04/16 03:36:43;;;;;;;1.58;1.13;;;;;8.80;102780.00;;;;5088905;28;20198;-77
2021/04/16 03:39:10;;;;;;;1.50;1.10;;;;;8.80;102784.00;;;;5074729;28;20205;-77
2021/04/16 03:41:37;;;;;;;1.73;1.10;;;;;8.80;102775.00;;;;5080697;28;20202;-77
2021/04/16 03:44:04;;;;;;;1.98;1.48;;;;;8.80;102785.00;;;;5088702;28;20203;-78
2021/04/16 03:46:31;;;;;;;2.30;1.15;;;;;8.80;102786.00;;;;5069076;28;20191;-77
2021/04/16 03:48:58;;;;;;;2.35;1.10;;;;;8.80;102775.00;;;;5085231;28;20213;-77
2021/04/16 03:51:25;;;;;;;2.22;1.08;;;;;8.80;102780.00;;;;5077930;28;20280;-77
2021/04/16 03:53:52;;;;;;;2.53;1.13;;;;;8.80;102781.00;;;;5073294;28;20205;-77
2021/04/16 03:56:18;;;;;;;3.10;1.42;;;;;8.80;102780.00;;;;5075464;28;20215;-77
2021/04/16 03:58:46;;;;;;;1.80;1.27;;;;;8.80;102783.00;;;;5081005;28;20243;-77
2021/04/16 04:01:15;;;;;;;1.27;1.08;;;;;8.80;102781.00;;;;5069710;28;20297;-77
2021/04/16 04:03:42;;;;;;;2.40;1.08;;;;;8.80;102791.00;;;;5080010;28;20191;-77
2021/04/16 04:06:09;;;;;;;2.67;1.00;;;;;8.80;102788.00;;;;5088818;28;20206;-77
2021/04/16 04:08:36;;;;;;;2.80;1.30;;;;;8.80;102790.00;;;;5086921;28;20225;-77
2021/04/16 04:11:03;;;;;;;1.30;1.00;;;;;8.80;102789.00;;;;5086429;28;20277;-77
2021/04/16 04:13:30;;;;;;;1.92;1.20;;;;;8.80;102792.00;;;;5088810;28;20210;-77
2021/04/16 04:15:58;;;;;;;1.23;0.77;;;;;8.80;102786.00;;;;5088833;28;20263;-77
2021/04/16 04:18:24;;;;;;;2.45;1.10;;;;;8.70;102791.00;;;;5087970;28;20202;-77
2021/04/16 04:20:51;;;;;;;2.47;1.00;;;;;8.70;102787.00;;;;5076447;28;20260;-77
2021/04/16 04:23:18;;;;;;;6.85;1.40;;;;;8.70;102784.00;;;;5074280;28;20203;-77
2021/04/16 04:25:45;;;;;;;1.30;1.10;;;;;8.70;102788.00;;;;5068472;28;20211;-77
2021/04/16 04:28:11;;;;;;;3.08;1.17;;;;;8.70;102790.00;;;;5087411;28;20721;-77
2021/04/16 04:30:39;;;;;;;1.75;1.10;;;;;8.70;102788.00;;;;5087447;28;20682;-77
2021/04/16 04:33:07;;;;;;;2.15;1.08;;;;;8.70;102784.00;;;;5088319;28;20218;-77
2021/04/16 04:35:35;;;;;;;1.58;1.05;;;;;8.70;102779.00;;;;5069914;28;20206;-77
2021/04/16 04:38:02;;;;;;;1.40;1.05;;;;;8.70;102789.00;;;;5084208;28;20190;-77
2021/04/16 04:40:29;;;;;;;4.00;1.02;;;;;8.70;102784.00;;;;5085881;28;20202;-78
2021/04/16 04:42:56;;;;;;;2.15;1.50;;;;;8.70;102783.00;;;;5079570;28;20205;-77
2021/04/16 04:45:24;;;;;;;2.05;0.90;;;;;8.70;102776.00;;;;5088314;28;20202;-77
2021/04/16 04:47:51;;;;;;;1.92;1.30;;;;;8.70;102789.00;;;;5088170;28;20197;-77
2021/04/16 04:50:22;;;;;;;1.95;1.02;;;;;8.70;102776.00;;;;5087839;28;20238;-77
2021/04/16 04:52:49;;;;;;;2.65;1.15;;;;;8.70;102783.00;;;;5088280;28;20319;-77
2021/04/16 04:55:18;;;;;;;1.60;0.88;;;;;8.70;102788.00;;;;5088421;28;20199;-77
2021/04/16 04:57:45;;;;;;;1.25;0.80;;;;;8.70;102781.00;;;;5087551;28;20959;-78
2021/04/16 05:00:15;;;;;;;1.92;0.95;;;;;8.70;102785.00;;;;5084237;28;20207;-77
2021/04/16 05:02:42;;;;;;;2.17;1.13;;;;;8.70;102782.00;;;;5079422;28;20202;-77
2021/04/16 05:05:10;;;;;;;1.58;0.90;;;;;8.70;102783.00;;;;5089183;28;20328;-77
2021/04/16 05:07:38;;;;;;;2.05;0.85;;;;;8.80;102783.00;;;;5085912;28;20194;-77
2021/04/16 05:10:06;;;;;;;3.35;1.20;;;;;8.80;102788.00;;;;5083456;28;20222;-77
2021/04/16 05:12:33;;;;;;;3.63;1.38;;;;;8.80;102788.00;;;;5075355;28;20194;-77
2021/04/16 05:15:00;;;;;;;3.13;1.08;;;;;8.80;102783.00;;;;5088043;28;20211;-77
2021/04/16 05:17:27;;;;;;;2.40;1.20;;;;;8.80;102784.00;;;;5092284;28;20198;-77
2021/04/16 05:19:53;;;;;;;2.85;1.80;;;;;8.80;102790.00;;;;5090558;28;20194;-76
2021/04/16 05:22:20;;;;;;;3.13;1.40;;;;;8.90;102792.00;;;;5076547;28;20190;-76
2021/04/16 05:24:48;;;;;;;5.25;1.80;;;;;8.90;102787.00;;;;5091090;28;20611;-77
2021/04/16 05:27:16;;;;;;;3.33;1.63;;;;;8.90;102795.00;;;;5088344;28;20194;-75
2021/04/16 05:29:43;;;;;;;5.90;2.20;;;;;9.00;102784.00;;;;5089759;28;20217;-77
2021/04/16 05:32:10;;;;;;;5.50;2.58;;;;;9.00;102787.00;;;;5092701;28;20255;-77
2021/04/16 05:34:38;;;;;;;5.03;2.50;;;;;9.00;102789.00;;;;5087646;28;20193;-76
2021/04/16 05:37:05;;;;;;;5.43;2.60;;;;;9.00;102788.00;;;;5089381;28;20205;-77
2021/04/16 05:39:32;;;;;;;6.47;2.72;;;;;9.10;102794.00;;;;5085597;28;20202;-76
2021/04/16 05:41:59;;;;;;;10.38;3.58;;;;;9.10;102784.00;;;;5085436;28;20232;-76
2021/04/16 05:44:26;;;;;;;7.68;3.40;;;;;9.10;102801.00;;;;5085249;28;20198;-76
2021/04/16 05:46:53;;;;;;;5.07;2.75;;;;;9.20;102796.00;;;;5087164;28;20660;-76
2021/04/16 05:49:21;;;;;;;4.88;2.97;;;;;9.20;102794.00;;;;5086512;28;20941;-77
2021/04/16 05:51:48;;;;;;;5.93;3.05;;;;;9.20;102796.00;;;;5085215;28;20202;-79
2021/04/16 05:54:14;;;;;;;6.45;3.65;;;;;9.30;102797.00;;;;5086650;28;20198;-75
2021/04/16 05:56:41;;;;;;;5.75;2.58;;;;;9.30;102793.00;;;;5085406;28;20218;-75
2021/04/16 05:59:09;;;;;;;6.65;2.47;;;;;9.30;102795.00;;;;5086035;28;20202;-76
2021/04/16 06:01:36;;;;;;;4.75;2.22;;;;;9.40;102786.00;;;;5086841;28;20656;-75
2021/04/16 06:04:03;;;;;;;4.15;2.38;;;;;9.50;102794.00;;;;5089422;28;20198;-77
2021/04/16 06:06:30;;;;;;;4.97;2.78;;;;;9.50;102784.00;;;;5091878;28;20202;-77
2021/04/16 06:08:56;;;;;;;4.45;2.60;;;;;9.50;102795.00;;;;5090271;28;21076;-77
2021/04/16 06:11:24;;;;;;;6.78;2.45;;;;;9.60;102797.00;;;;5074250;28;20195;-77
2021/04/16 06:13:50;;;;;;;4.90;2.17;;;;;9.60;102792.00;;;;5074579;28;20202;-77
2021/04/16 06:16:18;;;;;;;4.03;2.10;;;;;9.70;102785.00;;;;5091099;28;20209;-77
2021/04/16 06:18:46;;;;;;;4.45;2.00;;;;;9.80;102800.00;;;;5091450;28;20190;-78
2021/04/16 06:21:12;;;;;;;5.57;2.15;;;;;9.90;102804.00;;;;5090199;28;20230;-77
2021/04/16 06:23:39;;;;;;;6.35;1.95;;;;;9.90;102799.00;;;;5087689;28;20250;-77
2021/04/16 06:26:06;;;;;;;3.15;1.50;;;;;10.00;102801.00;;;;5070961;28;20203;-77
2021/04/16 06:28:33;;;;;;;2.75;1.77;;;;;10.10;102805.00;;;;5070522;28;20223;-78
2021/04/16 06:31:00;;;;;;;4.03;1.77;;;;;10.10;102821.00;;;;5076743;28;20202;-78
2021/04/16 06:33:30;;;;;;;5.63;2.15;;;;;10.20;102818.00;;;;5091290;28;20230;-77
2021/04/16 06:35:59;;;;;;;4.65;2.10;;;;;10.30;102812.00;;;;5093043;28;20190;-77
2021/04/16 06:38:29;;;;;;;3.55;1.80;;;;;10.30;102818.00;;;;5090563;28;20198;-77
2021/04/16 06:40:56;;;;;;;3.60;2.35;;;;;10.40;102823.00;;;;5086622;28;20207;-77
2021/04/16 06:43:26;;;;;;;4.53;2.10;;;;;10.50;102815.00;;;;5071259;28;20214;-78
2021/04/16 06:45:57;;;;;;;4.47;2.03;;;;;10.50;102815.00;;;;5070707;28;20202;-78
2021/04/16 06:48:24;;;;;;;3.78;1.50;;;;;10.60;102812.00;;;;5089888;28;20194;-77
2021/04/16 06:50:57;;;;;;;3.63;2.05;;;;;10.70;102806.00;;;;5087609;28;20294;-77
2021/04/16 06:53:31;;;;;;;5.22;1.60;;;;;10.80;102809.00;;;;5076184;28;20195;-77
2021/04/16 06:56:02;;;;;;;4.25;1.88;;;;;10.90;102816.00;;;;5085743;28;20206;-78
2021/04/16 06:58:33;;;;;;;3.00;1.83;;;;;11.00;102808.00;;;;5087959;28;20190;-78
2021/04/16 07:01:09;;;;;;;2.97;1.77;;;;;11.00;102813.00;;;;5087708;28;20602;-78
2021/04/16 07:03:44;;;;;;;4.68;2.13;;;;;11.10;102811.00;;;;5089368;28;20256;-79
2021/04/16 07:06:21;;;;;;;2.80;1.70;;;;;11.20;102819.00;;;;5090278;28;20206;-78
2021/04/16 07:08:55;;;;;;;3.35;1.75;;;;;11.30;102816.00;;;;5084782;28;20222;-78
2021/04/16 07:11:25;;;;;;;4.00;1.85;;;;;11.40;102809.00;;;;5085586;28;20588;-78
2021/04/16 07:13:52;;;;;;;4.82;1.55;;;;;11.50;102810.00;;;;5088278;28;20276;-79
2021/04/16 07:16:22;;;;;;;6.15;2.08;;;;;11.50;102807.00;;;;5089114;28;20194;-78
2021/04/16 07:18:53;;;;;;;3.97;1.70;;;;;11.60;102804.00;;;;5089124;28;20674;-79
2021/04/16 07:21:25;;;;;;;3.35;2.10;;;;;11.70;102809.00;;;;5088075;28;20194;-79
2021/04/16 07:23:54;;;;;;;3.97;2.10;;;;;11.80;102810.00;;;;5088947;28;20209;-78
2021/04/16 07:26:37;;;;;;;6.30;1.63;;;;;11.80;102808.00;;;;5068305;28;20195;-78
2021/04/16 07:29:05;;;;;;;3.95;1.95;;;;;12.00;102806.00;;;;5068403;28;20257;-78
2021/04/16 07:31:49;;;;;;;4.15;1.88;;;;;12.00;102806.00;;;;5077160;28;20197;-79
2021/04/16 07:34:47;;;;;;;2.97;1.40;;;;;12.10;102807.00;;;;5086733;28;20200;-78
2021/04/16 07:37:17;;;;;;;3.40;1.52;;;;;12.20;102803.00;;;;5071623;28;20518;-79
2021/04/16 07:39:58;;;;;;;4.10;1.40;;;;;12.30;102801.00;;;;5088271;28;20198;-78
2021/04/16 07:42:38;;;;;;;5.50;1.55;;;;;12.30;102805.00;;;;5081265;28;20256;-78
2021/04/16 07:45:35;;;;;;;5.25;1.30;;;;;12.40;102816.00;;;;5084879;28;20209;-78
2021/04/16 07:48:30;;;;;;;3.60;1.55;;;;;12.50;102813.00;;;;5088434;28;20677;-78
2021/04/16 07:50:58;;;;;;;3.55;1.25;;;;;12.70;102808.00;;;;5068304;28;20233;-77
2021/04/16 07:53:31;;;;;;;3.92;1.85;;;;;12.70;102803.00;;;;5088043;28;20190;-78
2021/04/16 07:56:07;;;;;;;3.45;1.50;;;;;12.80;102809.00;;;;5076152;28;20209;-77
2021/04/16 07:58:35;;;;;;;3.00;1.58;;;;;13.00;102817.00;;;;5086822;28;20191;-78
2021/04/16 08:01:12;;;;;;;2.78;1.83;;;;;13.00;102811.00;;;;5083536;28;20247;-78
2021/04/16 08:03:46;;;;;;;2.80;1.63;;;;;13.10;102809.00;;;;5076910;28;20186;-77
2021/04/16 08:06:26;;;;;;;4.63;1.83;;;;;13.20;102817.00;;;;5086430;28;20250;-77
2021/04/16 08:08:54;;;;;;;2.53;1.35;;;;;13.40;102813.00;;;;5087013;28;20214;-79
2021/04/16 08:11:26;;;;;;;2.40;1.55;;;;;13.40;102812.00;;;;5078563;28;20206;-79
2021/04/16 08:13:57;;;;;;;3.50;1.60;;;;;13.50;102811.00;;;;5085166;28;20656;-79
2021/04/16 08:16:26;;;;;;;3.85;1.65;;;;;13.60;102811.00;;;;5087443;28;20196;-79
2021/04/16 08:19:11;;;;;;;2.28;1.65;;;;;13.60;102806.00;;;;5088819;28;20201;-79
2021/04/16 08:21:41;;;;;;;2.60;1.20;;;;;13.80;102807.00;;;;5088231;28;20206;-79
2021/04/16 08:24:19;;;;;;;2.58;1.60;;;;;13.80;102810.00;;;;5080551;28;20621;-79
2021/04/16 08:27:00;;;;;;;3.03;1.50;;;;;13.90;102805.00;;;;5067733;28;20627;-79
2021/04/16 08:29:34;;;;;;;2.35;1.02;;;;;14.00;102811.00;;;;5068837;28;20242;-79
2021/04/16 08:32:07;;;;;;;3.55;1.60;;;;;14.20;102810.00;;;;5088056;28;20189;-79
2021/04/16 08:34:40;;;;;;;2.33;1.63;;;;;14.30;102813.00;;;;5088098;28;20244;-79
2021/04/16 08:37:11;;;;;;;2.03;1.50;;;;;14.40;102805.00;;;;5087423;28;20206;-79
2021/04/16 08:39:42;;;;;;;1.90;1.30;;;;;14.50;102806.00;;;;5087871;28;20287;-80
2021/04/16 08:42:13;;;;;;;1.73;1.50;;;;;14.60;102812.00;;;;5088100;28;20244;-79
2021/04/16 08:44:44;;;;;;;1.95;1.10;;;;;14.70;102806.00;;;;5087699;28;20695;-80
2021/04/16 08:47:23;;;;;;;3.47;1.23;;;;;14.70;102802.00;;;;5080652;28;20191;-80
2021/04/16 08:49:52;;;;;;;2.40;1.30;;;;;14.90;102808.00;;;;5086331;28;20229;-79
2021/04/16 08:52:27;;;;;;;1.40;0.98;;;;;15.00;102812.00;;;;5088114;28;20256;-80
2021/04/16 08:54:55;;;;;;;1.80;1.00;;;;;15.10;102803.00;;;;5079793;28;20205;-80
2021/04/16 08:57:27;;;;;;;2.38;0.80;;;;;15.10;102796.00;;;;5070216;28;20210;-80
2021/04/16 09:00:00;;;;;;;1.35;0.88;;;;;15.20;102809.00;;;;5087336;28;20760;-80
2021/04/16 09:02:31;;;;;;;1.67;0.88;;;;;15.30;102800.00;;;;5085903;28;20194;-80
2021/04/16 09:05:14;;;;;;;0.88;0.65;;;;;15.30;102801.00;;;;5087058;28;20198;-79
2021/04/16 09:07:44;;;;;;;1.75;0.60;;;;;15.40;102798.00;;;;5087162;28;20292;-80
2021/04/16 09:10:47;;;;;;;1.17;0.70;;;;;15.40;102796.00;;;;5086959;28;20275;-79
2021/04/16 09:13:57;;;;;;;2.13;0.80;;;;;15.50;102804.00;;;;5088093;28;20678;-80
2021/04/16 09:16:47;;;;;;;3.30;1.13;;;;;15.60;102801.00;;;;5074127;28;20209;-80
2021/04/16 09:19:37;;;;;;;1.25;0.80;;;;;15.60;102785.00;;;;5088202;28;20235;-80
2021/04/16 09:22:42;;;;;;;1.88;0.82;;;;;15.80;102795.00;;;;5086955;28;20267;-80
2021/04/16 09:25:41;;;;;;;1.00;0.70;;;;;15.90;102784.00;;;;5074165;28;20213;-80
2021/04/16 09:28:32;;;;;;;1.30;0.65;;;;;16.00;102790.00;;;;5072350;28;20199;-79
2021/04/16 09:31:01;;;;;;;1.10;0.70;;;;;16.10;102790.00;;;;5066720;28;20190;-80
2021/04/16 09:33:45;;;;;;;1.50;0.75;;;;;16.10;102790.00;;;;5088165;28;20198;-80
2021/04/16 09:36:32;;;;;;;0.93;0.60;;;;;16.20;102797.00;;;;5077292;28;20571;-80
2021/04/16 09:39:12;;;;;;;1.88;0.93;;;;;16.20;102780.00;;;;5082246;28;20210;-79
2021/04/16 09:41:40;;;;;;;0.88;0.70;;;;;16.40;102779.00;;;;5077052;28;20671;-80
2021/04/16 09:44:34;;;;;;;4.68;0.90;;;;;16.40;102788.00;;;;5085053;28;20738;-80
2021/04/16 09:47:03;;;;;;;2.10;0.73;;;;;16.60;102780.00;;;;5082431;28;20304;-79
2021/04/16 09:49:34;;;;;;;2.30;1.25;;;;;16.60;102769.00;;;;5088455;28;20222;-79
2021/04/16 09:52:17;;;;;;;0.98;0.85;;;;;16.70;102770.00;;;;5091218;28;20445;-80
2021/04/16 09:54:43;;;;;;;0.98;0.50;;;;;16.90;102776.00;;;;5090079;28;20207;-79
2021/04/16 09:57:40;;;;;;;2.90;1.10;;;;;16.90;102767.00;;;;5084737;28;20211;-79
2021/04/16 10:00:34;;;;;;;0.90;0.60;;;;;17.00;102785.00;;;;5087970;28;20194;-80
2021/04/16 10:03:20;;;;;;;0.75;0.40;;;;;17.00;102768.00;;;;5086812;28;20244;-80
2021/04/16 10:05:48;;;;;;;1.48;0.77;;;;;17.10;102773.00;;;;5081661;28;20248;-79
2021/04/16 10:08:23;;;;;;;1.25;0.63;;;;;17.20;102759.00;;;;5078501;28;20995;-79
2021/04/16 10:10:49;;;;;;;0.68;0.57;;;;;17.30;102758.00;;;;5077298;28;20210;-80
2021/04/16 10:13:22;;;;;;;0.85;0.47;;;;;17.30;102761.00;;;;5081374;28;20195;-79
2021/04/16 10:15:51;;;;;;;1.55;0.70;;;;;17.40;102761.00;;;;5081930;28;20207;-80
2021/04/16 10:18:30;;;;;;;1.27;0.57;;;;;17.50;102765.00;;;;5070566;28;20191;-78
2021/04/16 10:21:03;;;;;;;1.10;0.80;;;;;17.50;102746.00;;;;5070075;28;20249;-79
2021/04/16 10:23:34;;;;;;;1.15;0.77;;;;;17.60;102756.00;;;;5072954;28;20194;-79
2021/04/16 12:39:11;;;;;;;2.00;0.90;;;;;19.40;102669.00;;;;5089128;28;20263;-76
2021/04/16 12:41:43;;;;;;;1.48;1.10;;;;;19.40;102668.00;;;;5090018;28;20211;-77
2021/04/16 12:44:21;;;;;;;2.10;1.10;;;;;19.30;102666.00;;;;5083906;28;20202;-75
2021/04/16 12:46:48;;;;;;;1.23;0.80;;;;;19.50;102669.00;;;;5088188;28;20247;-76
2021/04/16 12:49:15;;;;;;;0.73;0.63;;;;;19.50;102663.00;;;;5089389;28;20626;-76
2021/04/16 12:51:42;;;;;;;1.45;0.77;;;;;19.60;102656.00;;;;5046033;28;20199;-76
2021/04/16 12:54:09;;;;;;;2.70;0.90;;;;;19.60;102660.00;;;;5038996;28;20200;-76
2021/04/16 12:56:39;;;;;;;1.55;0.80;;;;;19.70;102652.00;;;;5048637;28;20770;-77
2021/04/16 12:59:11;;;;;;;3.17;1.15;;;;;19.80;102662.00;;;;5040107;28;20273;-76
2021/04/16 13:01:38;;;;;;;1.65;1.10;;;;;19.90;102669.00;;;;5036350;28;20212;-76
2021/04/16 13:04:05;;;;;;;1.75;1.15;;;;;19.90;102667.00;;;;5034043;28;20196;-76
2021/04/16 13:06:35;;;;;;;3.08;1.00;;;;;20.00;102668.00;;;;5033876;28;20193;-76
2021/04/16 13:09:04;;;;;;;2.15;1.00;;;;;20.00;102656.00;;;;5040054;28;20196;-76
2021/04/16 13:11:30;;;;;;;2.38;1.13;;;;;20.10;102657.00;;;;5034963;28;20205;-74
2021/04/16 13:13:58;;;;;;;1.48;0.95;;;;;20.10;102649.00;;;;5041632;28;20222;-74
2021/04/16 13:16:25;;;;;;;2.40;1.08;;;;;20.20;102657.00;;;;5038104;28;20202;-75
2021/04/16 13:18:54;;;;;;;1.67;0.90;;;;;20.30;102635.00;;;;5045096;28;20554;-76
2021/04/16 13:21:25;;;;;;;1.67;0.95;;;;;20.40;102654.00;;;;5042222;28;20589;-76
2021/04/16 13:23:52;;;;;;;1.20;1.10;;;;;20.50;102641.00;;;;5038085;28;20189;-76
2021/04/16 13:26:20;;;;;;;2.55;0.68;;;;;20.70;102640.00;;;;5041179;28;20199;-75
2021/04/16 13:28:47;;;;;;;1.17;0.70;;;;;21.00;102635.00;;;;5048566;28;20206;-75
2021/04/16 13:31:14;;;;;;;1.73;1.05;;;;;21.20;102648.00;;;;5049562;28;20224;-76
2021/04/16 13:33:43;;;;;;;1.50;0.90;;;;;21.50;102630.00;;;;5047875;28;20261;-76
2021/04/16 13:36:14;;;;;;;1.52;0.88;;;;;21.80;102644.00;;;;5038641;28;20196;-76
2021/04/16 13:38:41;;;;;;;1.50;0.77;;;;;22.30;102633.00;;;;5033897;28;20196;-76
2021/04/16 13:41:08;;;;;;;5.15;0.88;;;;;22.70;102639.00;;;;5038030;28;20207;-75
2021/04/16 13:43:37;;;;;;;2.00;0.77;;;;;23.40;102623.00;;;;5039186;28;20204;-76
2021/04/16 13:46:06;;;;;;;1.15;0.98;;;;;24.00;102631.00;;;;5036416;28;20197;-76
2021/04/16 13:48:33;;;;;;;1.58;1.05;;;;;24.60;102625.00;;;;5044196;28;20230;-76
2021/04/16 13:51:00;;;;;;;2.47;0.93;;;;;25.20;102633.00;;;;5070989;28;20599;-76
2021/04/16 13:53:27;;;;;;;2.25;1.00;;;;;25.40;102638.00;;;;5088350;28;20202;-76
2021/04/16 13:55:53;;;;;;;1.30;1.10;;;;;25.30;102634.00;;;;5079031;28;20253;-76
2021/04/16 13:58:20;;;;;;;2.22;1.50;;;;;25.00;102638.00;;;;5070949;28;20238;-76
2021/04/16 14:00:48;;;;;;;2.85;0.90;;;;;24.60;102622.00;;;;5071005;28;20195;-76
2021/04/16 14:03:27;;;;;;;1.55;0.90;;;;;24.30;102615.00;;;;5079645;28;20198;-76
2021/04/16 14:05:57;;;;;;;1.95;1.00;;;;;24.60;102617.00;;;;5089575;28;20197;-76
2021/04/16 14:08:28;;;;;;;4.20;1.02;;;;;25.30;102622.00;;;;5079389;28;20191;-76
2021/04/16 14:10:55;;;;;;;1.77;0.90;;;;;25.50;102618.00;;;;5089339;28;20222;-76
2021/04/16 14:13:22;;;;;;;3.83;0.98;;;;;25.30;102615.00;;;;5075823;28;20199;-75
2021/04/16 14:15:50;;;;;;;1.38;0.88;;;;;25.40;102618.00;;;;5088335;28;20194;-76
2021/04/16 14:18:27;;;;;;;2.13;1.30;;;;;25.50;102611.00;;;;5087813;28;20198;-76
2021/04/16 14:20:54;;;;;;;1.92;0.70;;;;;25.60;102601.00;;;;5088786;28;20567;-76
2021/04/16 14:23:22;;;;;;;1.00;0.90;;;;;25.90;102611.00;;;;5089629;28;20648;-75
2021/04/16 14:25:49;;;;;;;1.98;1.30;;;;;26.30;102616.00;;;;5080587;28;20190;-76
2021/04/16 14:28:18;;;;;;;2.22;1.35;;;;;26.60;102605.00;;;;5090347;28;20194;-75
2021/04/16 14:30:45;;;;;;;1.15;0.90;;;;;26.80;102603.00;;;;5090237;28;20222;-76
2021/04/16 14:33:15;;;;;;;2.92;1.10;;;;;27.10;102600.00;;;;5090521;28;20198;-76
2021/04/16 14:35:42;;;;;;;1.60;1.00;;;;;27.50;102604.00;;;;5088352;28;20229;-76
2021/04/16 14:38:09;;;;;;;1.52;0.70;;;;;27.70;102610.00;;;;5090033;28;20198;-76
2021/04/16 14:40:36;;;;;;;1.48;1.15;;;;;28.20;102599.00;;;;5088700;28;20476;-76
2021/04/16 14:43:03;;;;;;;1.08;0.77;;;;;28.70;102600.00;;;;5090343;28;20206;-76